Gulf — V2BB5 — position and weather

sailwx.info

Track history (hours):
 
Tides and Currents Weather Stations Pressure Air Temp Water Temp Dewpoint Dewpoint Depression Visibility Wind Speed Wind Dir Waves Ship Positions

Gulf

Last reported at 2015-Sep-01 09:05 UTC. Time now 2015-Sep-01 10:07 UTC.
Position N 37°31' E 010°26'.

Length 96 m; draft 5.4 m.

Type: Cargo ship. MMSI: 304320000.

Date/timePositionNaut miles runAvg speedWind from/ knotsBaromVisibWave heightAir tempDewpointWater temp
2015-Sep-01 09:05N 37°31' E 010°26'  
2015-Aug-27 02:05N 36°15' W 007°51'4 7.4
2015-Aug-27 01:32N 36°16' W 007°56'7 7.5
2015-Aug-27 00:33N 36°18' W 008°05'33 7.5
2015-Aug-26 20:07N 36°26' W 008°45'5 7.7
2015-Aug-26 19:28N 36°28' W 008°51'68 5.7
2015-Aug-26 07:28N 37°34' W 009°08'7 7.4
2015-Aug-26 06:32N 37°39' W 009°03'7 7.5
2015-Aug-26 05:33N 37°45' W 008°57'8 7.7
2015-Aug-26 04:33N 37°53' W 008°54'4 4.1
2015-Aug-26 03:31N 37°56' W 008°51'0 0.0
2015-Aug-26 02:31N 37°56' W 008°51'0 0.0
2015-Aug-26 01:31N 37°56' W 008°51'0 0.0
2015-Aug-26 00:31N 37°56' W 008°51'0 0.0
2015-Aug-25 23:31N 37°56' W 008°51'0 0.0
2015-Aug-25 22:31N 37°56' W 008°51'0 0.0
2015-Aug-25 21:31N 37°56' W 008°51'0 0.0
2015-Aug-25 20:31N 37°56' W 008°51'0 0.0
2015-Aug-25 19:31N 37°56' W 008°51'0 0.0
2015-Aug-25 18:31N 37°56' W 008°51'0 0.0
2015-Aug-25 17:31N 37°56' W 008°51'0 0.0
2015-Aug-25 16:31N 37°56' W 008°51'0 0.0
2015-Aug-25 15:31N 37°56' W 008°51'0 0.0
2015-Aug-25 14:28N 37°56' W 008°51'0 0.0
2015-Aug-25 13:31N 37°56' W 008°51'0 0.0
2015-Aug-25 12:31N 37°56' W 008°51'0 0.0
2015-Aug-25 11:31N 37°56' W 008°51'0 0.0
2015-Aug-25 10:31N 37°56' W 008°51'0 0.0
2015-Aug-25 09:31N 37°56' W 008°51'0 0.0
2015-Aug-25 08:31N 37°56' W 008°51'0 0.0
2015-Aug-25 07:31N 37°56' W 008°51'0 0.0
2015-Aug-25 06:31N 37°56' W 008°51'0 0.0
2015-Aug-25 05:31N 37°56' W 008°51'0 0.0
2015-Aug-25 04:31N 37°56' W 008°51'0 0.0
2015-Aug-25 03:31N 37°56' W 008°51'0 0.0
2015-Aug-25 02:31N 37°56' W 008°51'0 0.0
2015-Aug-25 01:31N 37°56' W 008°51'0 0.0
2015-Aug-25 00:31N 37°56' W 008°51'0 0.0
2015-Aug-24 23:31N 37°56' W 008°51'0 0.0
2015-Aug-24 22:31N 37°56' W 008°51'0 0.0
2015-Aug-24 21:31N 37°56' W 008°51'0 0.0
2015-Aug-24 20:31N 37°56' W 008°51'0 0.0
2015-Aug-24 19:28N 37°56' W 008°51'0 0.0
2015-Aug-24 18:31N 37°56' W 008°51'0 0.0
2015-Aug-24 17:31N 37°56' W 008°51'0 0.0
2015-Aug-24 16:31N 37°56' W 008°51'0 0.0
2015-Aug-24 15:31N 37°56' W 008°51'0 0.0
2015-Aug-24 14:31N 37°56' W 008°51'0 0.0
2015-Aug-24 13:31N 37°56' W 008°51'0 0.0
2015-Aug-24 12:31N 37°56' W 008°51'0 0.0
2015-Aug-24 11:31N 37°56' W 008°51'0 0.0
2015-Aug-24 10:28N 37°56' W 008°51'0 0.0
2015-Aug-24 09:31N 37°56' W 008°51'0 0.0
2015-Aug-24 08:31N 37°56' W 008°51'0 0.0
2015-Aug-24 07:31N 37°56' W 008°51'0 0.0
2015-Aug-24 06:31N 37°56' W 008°51'0 0.0
2015-Aug-24 05:31N 37°56' W 008°51'0 0.0
2015-Aug-24 04:28N 37°56' W 008°51'0 0.0
2015-Aug-24 03:31N 37°56' W 008°51'0 0.0
2015-Aug-24 02:31N 37°56' W 008°51'0 0.0
2015-Aug-24 01:31N 37°56' W 008°51'0 0.0
2015-Aug-24 00:31N 37°56' W 008°51'0 0.0
2015-Aug-23 23:31N 37°56' W 008°51'0 0.0
2015-Aug-23 22:31N 37°56' W 008°51'0 0.0
2015-Aug-23 21:31N 37°56' W 008°51'0 0.0
2015-Aug-23 20:28N 37°56' W 008°51'0 0.0
2015-Aug-23 19:31N 37°56' W 008°51'0 0.0
2015-Aug-23 18:31N 37°56' W 008°51'0 0.0
2015-Aug-23 17:31N 37°56' W 008°51'0 0.0
2015-Aug-23 16:28N 37°56' W 008°51'0 0.0
2015-Aug-23 15:31N 37°56' W 008°51'0 0.0
2015-Aug-23 14:31N 37°56' W 008°51'0 0.0
2015-Aug-23 13:31N 37°56' W 008°51'0 0.0
2015-Aug-23 12:31N 37°56' W 008°51'0 0.0
2015-Aug-23 11:31N 37°56' W 008°51'0 0.0
2015-Aug-23 10:31N 37°56' W 008°51'0 0.0
2015-Aug-23 09:28N 37°56' W 008°51'0 0.0
2015-Aug-23 08:31N 37°56' W 008°51'0 0.0
2015-Aug-23 07:33N 37°56' W 008°51'4 4.4
2015-Aug-23 06:33N 37°52' W 008°53'6 5.8
2015-Aug-23 05:33N 37°47' W 008°56'5 4.7
2015-Aug-23 04:33N 37°43' W 008°59'6 6.5
2015-Aug-23 03:33N 37°37' W 009°02'7 7.1
2015-Aug-23 02:33N 37°30' W 009°05'7 7.0
2015-Aug-23 01:30N 37°23' W 009°09'9 7.1
2015-Aug-23 00:17N 37°15' W 009°13'8 7.3
2015-Aug-22 23:13N 37°08' W 009°17'45 6.5
2015-Aug-22 16:19N 36°36' W 008°38'23 8.3
2015-Aug-22 13:31N 36°29' W 008°10'17 8.5
2015-Aug-22 11:28N 36°23' W 007°50'8 8.5
2015-Aug-22 10:30N 36°21' W 007°40'  
Track history (hours):
 
Tides and Currents Weather Stations Pressure Air Temp Water Temp Dewpoint Dewpoint Depression Visibility Wind Speed Wind Dir Waves Ship Positions

Gulf

Last reported at 2015-Sep-01 09:05 UTC. Time now 2015-Sep-01 10:07 UTC.
Position N 37°31' E 010°26'.

Length 96 m; draft 5.4 m.

Type: Cargo ship. MMSI: 304320000.

Date/timePositionNaut miles runAvg speedWind from/ knotsBaromVisibWave heightAir tempDewpointWater temp
2015-Sep-01 09:05N 37°31' E 010°26'  
2015-Aug-27 02:05N 36°15' W 007°51'4 7.4
2015-Aug-27 01:32N 36°16' W 007°56'7 7.5
2015-Aug-27 00:33N 36°18' W 008°05'33 7.5
2015-Aug-26 20:07N 36°26' W 008°45'5 7.7
2015-Aug-26 19:28N 36°28' W 008°51'68 5.7
2015-Aug-26 07:28N 37°34' W 009°08'7 7.4
2015-Aug-26 06:32N 37°39' W 009°03'7 7.5
2015-Aug-26 05:33N 37°45' W 008°57'8 7.7
2015-Aug-26 04:33N 37°53' W 008°54'4 4.1
2015-Aug-26 03:31N 37°56' W 008°51'0 0.0
2015-Aug-26 02:31N 37°56' W 008°51'0 0.0
2015-Aug-26 01:31N 37°56' W 008°51'0 0.0
2015-Aug-26 00:31N 37°56' W 008°51'0 0.0
2015-Aug-25 23:31N 37°56' W 008°51'0 0.0
2015-Aug-25 22:31N 37°56' W 008°51'0 0.0
2015-Aug-25 21:31N 37°56' W 008°51'0 0.0
2015-Aug-25 20:31N 37°56' W 008°51'0 0.0
2015-Aug-25 19:31N 37°56' W 008°51'0 0.0
2015-Aug-25 18:31N 37°56' W 008°51'0 0.0
2015-Aug-25 17:31N 37°56' W 008°51'0 0.0
2015-Aug-25 16:31N 37°56' W 008°51'0 0.0
2015-Aug-25 15:31N 37°56' W 008°51'0 0.0
2015-Aug-25 14:28N 37°56' W 008°51'0 0.0
2015-Aug-25 13:31N 37°56' W 008°51'0 0.0
2015-Aug-25 12:31N 37°56' W 008°51'0 0.0
2015-Aug-25 11:31N 37°56' W 008°51'0 0.0
2015-Aug-25 10:31N 37°56' W 008°51'0 0.0
2015-Aug-25 09:31N 37°56' W 008°51'0 0.0
2015-Aug-25 08:31N 37°56' W 008°51'0 0.0
2015-Aug-25 07:31N 37°56' W 008°51'0 0.0
2015-Aug-25 06:31N 37°56' W 008°51'0 0.0
2015-Aug-25 05:31N 37°56' W 008°51'0 0.0
2015-Aug-25 04:31N 37°56' W 008°51'0 0.0
2015-Aug-25 03:31N 37°56' W 008°51'0 0.0
2015-Aug-25 02:31N 37°56' W 008°51'0 0.0
2015-Aug-25 01:31N 37°56' W 008°51'0 0.0
2015-Aug-25 00:31N 37°56' W 008°51'0 0.0
2015-Aug-24 23:31N 37°56' W 008°51'0 0.0
2015-Aug-24 22:31N 37°56' W 008°51'0 0.0
2015-Aug-24 21:31N 37°56' W 008°51'0 0.0
2015-Aug-24 20:31N 37°56' W 008°51'0 0.0
2015-Aug-24 19:28N 37°56' W 008°51'0 0.0
2015-Aug-24 18:31N 37°56' W 008°51'0 0.0
2015-Aug-24 17:31N 37°56' W 008°51'0 0.0
2015-Aug-24 16:31N 37°56' W 008°51'0 0.0
2015-Aug-24 15:31N 37°56' W 008°51'0 0.0
2015-Aug-24 14:31N 37°56' W 008°51'0 0.0
2015-Aug-24 13:31N 37°56' W 008°51'0 0.0
2015-Aug-24 12:31N 37°56' W 008°51'0 0.0
2015-Aug-24 11:31N 37°56' W 008°51'0 0.0
2015-Aug-24 10:28N 37°56' W 008°51'0 0.0
2015-Aug-24 09:31N 37°56' W 008°51'0 0.0
2015-Aug-24 08:31N 37°56' W 008°51'0 0.0
2015-Aug-24 07:31N 37°56' W 008°51'0 0.0
2015-Aug-24 06:31N 37°56' W 008°51'0 0.0
2015-Aug-24 05:31N 37°56' W 008°51'0 0.0
2015-Aug-24 04:28N 37°56' W 008°51'0 0.0
2015-Aug-24 03:31N 37°56' W 008°51'0 0.0
2015-Aug-24 02:31N 37°56' W 008°51'0 0.0
2015-Aug-24 01:31N 37°56' W 008°51'0 0.0
2015-Aug-24 00:31N 37°56' W 008°51'0 0.0
2015-Aug-23 23:31N 37°56' W 008°51'0 0.0
2015-Aug-23 22:31N 37°56' W 008°51'0 0.0
2015-Aug-23 21:31N 37°56' W 008°51'0 0.0
2015-Aug-23 20:28N 37°56' W 008°51'0 0.0
2015-Aug-23 19:31N 37°56' W 008°51'0 0.0
2015-Aug-23 18:31N 37°56' W 008°51'0 0.0
2015-Aug-23 17:31N 37°56' W 008°51'0 0.0
2015-Aug-23 16:28N 37°56' W 008°51'0 0.0
2015-Aug-23 15:31N 37°56' W 008°51'0 0.0
2015-Aug-23 14:31N 37°56' W 008°51'0 0.0
2015-Aug-23 13:31N 37°56' W 008°51'0 0.0
2015-Aug-23 12:31N 37°56' W 008°51'0 0.0
2015-Aug-23 11:31N 37°56' W 008°51'0 0.0
2015-Aug-23 10:31N 37°56' W 008°51'0 0.0
2015-Aug-23 09:28N 37°56' W 008°51'0 0.0
2015-Aug-23 08:31N 37°56' W 008°51'0 0.0
2015-Aug-23 07:33N 37°56' W 008°51'4 4.4
2015-Aug-23 06:33N 37°52' W 008°53'6 5.8
2015-Aug-23 05:33N 37°47' W 008°56'5 4.7
2015-Aug-23 04:33N 37°43' W 008°59'6 6.5
2015-Aug-23 03:33N 37°37' W 009°02'7 7.1
2015-Aug-23 02:33N 37°30' W 009°05'7 7.0
2015-Aug-23 01:30N 37°23' W 009°09'9 7.1
2015-Aug-23 00:17N 37°15' W 009°13'8 7.3
2015-Aug-22 23:13N 37°08' W 009°17'45 6.5
2015-Aug-22 16:19N 36°36' W 008°38'23 8.3
2015-Aug-22 13:31N 36°29' W 008°10'17 8.5
2015-Aug-22 11:28N 36°23' W 007°50'8 8.5
2015-Aug-22 10:30N 36°21' W 007°40'  

Dump ship's entire track history